Terminal Aerodrome Forecast
Issued by NWS Sterling, VA

Current Version | Previous Version | Text Only | Print | Product List | Glossary Off
Versions: 1 2 3 4 5 6 7 8 9 10 11 12 13 14 15 16 17 18 19 20 21 22 23 24

000
FTUS41 KLWX 261913 AAA
TAFIAD
TAF AMD
KIAD 261913Z 2619/2724 33008KT P6SM BKN020
     FM270500 34005KT 5SM -SHSN OVC015
     FM270800 34005KT P6SM OVC025
     FM271500 34010G18KT P6SM BKN035
     FM272200 34009KT P6SM SCT040=

USA.gov is the U.S. government's official web portal to all federal, state and local government web resources and services.